Time;durP1;ratioP1;P1;durP2;ratioP2;P2;SDS_P1;SDS_P2;PMS_P1;PMS_P2;Temp;Humidity;BMP_temperature;BMP_pressure;BME280_temperature;BME280_humidity;BME280_pressure;Samples;Min_cycle;Max_cycle;Signal;HPM_P1;HPM_P2
2022/11/17 00:01:41;;;;;;;;;;;;;;;26.37;57.66;95644.17;610141;232;67287;-69
2022/11/17 00:04:09;;;;;;;;;;;;;;;26.37;57.40;95652.26;610123;232;67053;-69
2022/11/17 00:06:36;;;;;;;;;;;;;;;26.37;57.27;95646.88;610116;232;65189;-70
2022/11/17 00:09:03;;;;;;;;;;;;;;;26.35;57.30;95650.70;610072;232;67204;-70
2022/11/17 00:14:31;;;;;;;;;;;;;;;26.35;56.77;95653.39;610123;232;67039;-69
2022/11/17 00:16:47;;;;;;;;;;;;;;;26.34;57.61;95649.11;610191;232;67302;-69
2022/11/17 00:22:00;;;;;;;;;;;;;;;26.32;55.27;95637.88;610139;232;65259;-70
2022/11/17 00:24:27;;;;;;;;;;;;;;;26.32;56.69;95629.02;610128;232;64620;-66
2022/11/17 00:27:01;;;;;;;;;;;;;;;26.32;58.32;95637.88;610120;232;64809;-66
2022/11/17 00:29:29;;;;;;;;;;;;;;;26.31;58.32;95630.94;610142;232;63846;-66
2022/11/17 00:34:42;;;;;;;;;;;;;;;26.30;57.16;95613.22;609000;233;66762;-66
2022/11/17 00:37:10;;;;;;;;;;;;;;;26.30;56.55;95610.53;608957;233;63159;-66
2022/11/17 00:39:37;;;;;;;;;;;;;;;26.30;57.02;95609.72;608930;233;66927;-66
2022/11/17 00:42:05;;;;;;;;;;;;;;;26.28;57.49;95599.30;608932;233;64752;-70
2022/11/17 00:44:32;;;;;;;;;;;;;;;26.28;57.95;95602.00;608919;233;63039;-70
2022/11/17 00:47:00;;;;;;;;;;;;;;;26.27;57.91;95595.05;608955;233;64763;-70
2022/11/17 00:49:27;;;;;;;;;;;;;;;26.27;57.11;95605.83;608932;233;64989;-70
2022/11/17 00:51:55;;;;;;;;;;;;;;;26.28;58.28;95590.45;608907;233;62648;-66
2022/11/17 00:54:23;;;;;;;;;;;;;;;26.26;55.99;95593.47;608918;233;65328;-70
2022/11/17 00:56:50;;;;;;;;;;;;;;;26.27;57.73;95583.47;608918;233;64858;-70
2022/11/17 00:59:18;;;;;;;;;;;;;;;26.26;57.02;95588.08;608961;233;63106;-70
2022/11/17 01:01:45;;;;;;;;;;;;;;;26.26;58.55;95592.69;608939;233;65008;-70
2022/11/17 01:04:14;;;;;;;;;;;;;;;26.25;59.49;95586.52;608919;233;64916;-70
2022/11/17 01:06:43;;;;;;;;;;;;;;;26.24;57.20;95582.23;608931;233;65065;-70
2022/11/17 01:09:15;;;;;;;;;;;;;;;26.24;58.63;95584.16;608944;233;67226;-70
2022/11/17 01:11:43;;;;;;;;;;;;;;;26.23;58.06;95582.59;608926;233;67142;-70
2022/11/17 01:14:15;;;;;;;;;;;;;;;26.22;58.31;95587.20;608910;233;64959;-70
2022/11/17 01:16:43;;;;;;;;;;;;;;;26.21;58.16;95585.61;608362;232;67346;-70
2022/11/17 01:19:11;;;;;;;;;;;;;;;26.21;58.11;95572.16;608950;233;66817;-70
2022/11/17 01:21:39;;;;;;;;;;;;;;;26.21;58.43;95568.68;608918;233;64935;-70
2022/11/17 01:24:07;;;;;;;;;;;;;;;26.20;58.84;95567.13;608873;231;67309;-70
2022/11/17 01:26:35;;;;;;;;;;;;;;;26.18;58.33;95567.45;608968;233;67045;-70
2022/11/17 01:29:03;;;;;;;;;;;;;;;26.19;57.79;95555.58;608935;233;65160;-70
2022/11/17 01:31:32;;;;;;;;;;;;;;;26.17;57.72;95551.65;608887;233;67284;-70
2022/11/17 01:33:59;;;;;;;;;;;;;;;26.16;57.48;95550.84;608949;233;64434;-70
2022/11/17 01:36:28;;;;;;;;;;;;;;;26.17;58.36;95559.73;608917;233;62760;-70
2022/11/17 01:38:56;;;;;;;;;;;;;;;26.16;58.26;95553.53;608985;233;66981;-70
2022/11/17 01:41:25;;;;;;;;;;;;;;;26.16;58.97;95558.14;608915;233;67041;-70
2022/11/17 01:43:54;;;;;;;;;;;;;;;26.14;57.16;95542.34;608928;233;65077;-70
2022/11/17 01:46:26;;;;;;;;;;;;;;;26.14;58.45;95531.58;608938;233;66946;-70
2022/11/17 01:48:55;;;;;;;;;;;;;;;26.12;57.34;95545.36;608925;233;66895;-71
2022/11/17 01:51:24;;;;;;;;;;;;;;;26.12;58.76;95545.36;608728;232;62998;-69
2022/11/17 01:53:51;;;;;;;;;;;;;;;26.12;57.40;95539.97;608928;233;64731;-69
2022/11/17 01:56:20;;;;;;;;;;;;;;;26.12;59.47;95539.20;608953;233;64758;-69
2022/11/17 01:58:49;;;;;;;;;;;;;;;26.10;58.77;95531.45;608911;232;64975;-69
2022/11/17 02:01:17;;;;;;;;;;;;;;;26.10;58.60;95530.67;608946;233;66718;-69
2022/11/17 02:03:46;;;;;;;;;;;;;;;26.09;56.55;95527.20;608929;233;66685;-69
2022/11/17 02:06:15;;;;;;;;;;;;;;;26.09;60.14;95529.11;608956;233;62988;-69
2022/11/17 02:08:44;;;;;;;;;;;;;;;26.08;58.88;95528.33;608931;233;67910;-69
2022/11/17 02:11:13;;;;;;;;;;;;;;;26.07;58.88;95525.97;608951;233;67098;-69
2022/11/17 02:13:41;;;;;;;;;;;;;;;26.07;56.54;95528.66;608821;233;62986;-69
2022/11/17 02:16:15;;;;;;;;;;;;;;;26.07;58.57;95531.35;608907;233;64782;-69
2022/11/17 02:18:44;;;;;;;;;;;;;;;26.06;58.70;95524.41;608987;233;66770;-69
2022/11/17 02:21:28;;;;;;;;;;;;;;;26.05;57.83;95523.60;608917;233;65007;-66
2022/11/17 02:24:13;;;;;;;;;;;;;;;26.04;55.64;95521.27;608968;233;66926;-66
2022/11/17 02:26:55;;;;;;;;;;;;;;;26.04;56.41;95523.95;608922;233;67016;-65
2022/11/17 02:29:27;;;;;;;;;;;;;;;26.04;57.87;95513.19;608997;232;65358;-66
2022/11/17 02:32:05;;;;;;;;;;;;;;;26.03;58.32;95514.33;608435;232;66910;-69
2022/11/17 02:34:35;;;;;;;;;;;;;;;26.03;58.82;95500.86;608932;233;64727;-70
2022/11/17 02:37:19;;;;;;;;;;;;;;;26.01;56.45;95497.72;608927;233;65057;-70
2022/11/17 02:39:48;;;;;;;;;;;;;;;26.01;57.89;95500.41;608958;232;66848;-69
2022/11/17 02:42:17;;;;;;;;;;;;;;;26.00;56.81;95496.13;608944;233;64662;-69
2022/11/17 02:44:49;;;;;;;;;;;;;;;26.00;57.03;95496.13;608211;232;63075;-66
2022/11/17 02:47:18;;;;;;;;;;;;;;;25.98;57.10;95480.34;608898;232;64524;-66
2022/11/17 02:49:53;;;;;;;;;;;;;;;25.99;59.04;95481.13;608935;233;64386;-66
2022/11/17 02:52:21;;;;;;;;;;;;;;;25.97;57.05;95477.98;608889;233;65008;-66
2022/11/17 02:54:49;;;;;;;;;;;;;;;25.97;57.43;95483.36;608948;233;64792;-66
2022/11/17 02:57:33;;;;;;;;;;;;;;;25.96;57.52;95487.19;608923;233;64939;-66
2022/11/17 03:00:02;;;;;;;;;;;;;;;25.96;57.31;95477.20;608899;233;62781;-65
2022/11/17 03:02:31;;;;;;;;;;;;;;;25.96;56.01;95479.11;608914;233;64702;-66
2022/11/17 03:05:06;;;;;;;;;;;;;;;25.94;56.77;95479.44;608924;232;65776;-66
2022/11/17 03:07:38;;;;;;;;;;;;;;;25.95;56.98;95477.55;608910;233;62997;-66
2022/11/17 03:10:07;;;;;;;;;;;;;;;25.94;56.75;95478.66;608967;233;67002;-66
2022/11/17 03:12:42;;;;;;;;;;;;;;;25.94;57.61;95479.44;608906;233;68494;-66
2022/11/17 03:15:17;;;;;;;;;;;;;;;25.93;58.09;95477.88;608844;232;63806;-66
2022/11/17 03:17:49;;;;;;;;;;;;;;;25.91;56.80;95482.81;608894;232;66764;-66
2022/11/17 03:20:17;;;;;;;;;;;;;;;25.89;57.80;95483.17;608901;232;64497;-66
2022/11/17 03:22:58;;;;;;;;;;;;;;;25.88;57.91;95481.58;608930;233;62933;-66
2022/11/17 03:25:27;;;;;;;;;;;;;;;25.89;58.45;95477.78;608927;232;64776;-66
2022/11/17 03:27:56;;;;;;;;;;;;;;;25.88;57.12;95476.20;608912;233;66871;-66
2022/11/17 03:30:24;;;;;;;;;;;;;;;25.87;57.53;95490.79;608937;233;65097;-66
2022/11/17 03:32:53;;;;;;;;;;;;;;;25.88;57.91;95491.56;608862;233;66915;-66
2022/11/17 03:35:22;;;;;;;;;;;;;;;25.85;58.01;95479.57;608836;233;66761;-66
2022/11/17 03:37:54;;;;;;;;;;;;;;;25.85;58.73;95470.72;608968;233;62983;-66
2022/11/17 03:40:23;;;;;;;;;;;;;;;25.83;59.22;95468.36;608945;233;64477;-66
2022/11/17 03:42:53;;;;;;;;;;;;;;;25.84;58.68;95466.47;608916;233;64704;-66
2022/11/17 03:45:25;;;;;;;;;;;;;;;25.83;58.00;95470.23;608925;233;65074;-66
2022/11/17 03:47:53;;;;;;;;;;;;;;;25.83;57.03;95468.36;608858;233;66806;-67
2022/11/17 03:50:22;;;;;;;;;;;;;;;25.81;58.36;95470.59;608892;232;64629;-67
2022/11/17 03:52:51;;;;;;;;;;;;;;;25.81;57.37;95475.98;608919;233;65197;-67
2022/11/17 03:55:19;;;;;;;;;;;;;;;25.81;57.96;95470.59;608920;233;67060;-65
2022/11/17 03:57:48;;;;;;;;;;;;;;;25.81;58.15;95472.48;608938;233;66848;-65
2022/11/17 04:00:16;;;;;;;;;;;;;;;25.79;57.28;95464.76;608878;232;62990;-66
2022/11/17 04:02:45;;;;;;;;;;;;;;;25.79;57.71;95463.98;608906;233;66772;-66
2022/11/17 04:05:14;;;;;;;;;;;;;;;25.78;59.33;95460.52;608987;233;64455;-66
2022/11/17 04:07:43;;;;;;;;;;;;;;;25.79;59.21;95462.07;608931;233;65018;-66
2022/11/17 04:10:12;;;;;;;;;;;;;;;25.77;58.36;95458.15;608961;233;66830;-66
2022/11/17 04:18:04;;;;;;;;;;;;;;;25.75;55.60;95473.84;604545;232;65480;-66
2022/11/17 04:20:34;;;;;;;;;;;;;;;25.75;57.74;95471.92;608974;233;66790;-66
2022/11/17 04:23:12;;;;;;;;;;;;;;;25.73;57.41;95479.58;608902;233;65362;-66
2022/11/17 04:31:04;;;;;;;;;;;;;;;25.73;59.20;95466.13;608967;233;65275;-66
2022/11/17 04:33:31;;;;;;;;;;;;;;;25.70;58.22;95464.11;609799;232;66309;-66
2022/11/17 04:35:59;;;;;;;;;;;;;;;25.69;58.74;95457.15;610159;232;66394;-66
2022/11/17 04:38:27;;;;;;;;;;;;;;;25.68;58.15;95452.90;610172;232;65025;-66
2022/11/17 04:43:41;;;;;;;;;;;;;;;25.67;58.31;95438.67;610153;232;64489;-66
2022/11/17 04:46:08;;;;;;;;;;;;;;;25.67;58.40;95440.55;610140;232;62891;-66
2022/11/17 04:48:36;;;;;;;;;;;;;;;25.66;59.63;95444.38;610125;232;66470;-66
2022/11/17 04:51:03;;;;;;;;;;;;;;;25.64;58.20;95446.61;610155;232;66457;-66
2022/11/17 04:53:31;;;;;;;;;;;;;;;25.64;56.95;95455.46;610174;232;65046;-66
2022/11/17 04:56:02;;;;;;;;;;;;;;;25.65;57.68;95450.89;610156;232;66924;-66
2022/11/17 04:58:29;;;;;;;;;;;;;;;25.65;59.54;95456.27;610096;232;66774;-66
2022/11/17 05:01:11;;;;;;;;;;;;;;;25.64;58.91;95460.06;610136;232;63087;-66
2022/11/17 05:03:26;;;;;;;;;;;;;;;25.63;58.53;95455.81;609606;232;64889;-66
2022/11/17 05:05:54;;;;;;;;;;;;;;;25.62;58.42;95456.95;610175;232;64541;-66
2022/11/17 05:08:21;;;;;;;;;;;;;;;25.60;58.66;95457.28;610101;232;62920;-66
2022/11/17 05:13:34;;;;;;;;;;;;;;;25.60;59.31;95459.97;610129;232;66852;-66
2022/11/17 05:18:47;;;;;;;;;;;;;;;25.60;58.38;95467.26;609954;232;67080;-66
2022/11/17 05:21:14;;;;;;;;;;;;;;;25.60;58.23;95464.56;610145;232;66511;-66
2022/11/17 05:23:54;;;;;;;;;;;;;;;25.59;58.44;95468.36;610089;232;65077;-66
2022/11/17 05:26:23;;;;;;;;;;;;;;;25.58;59.09;95464.11;610105;232;66843;-66
2022/11/17 05:28:51;;;;;;;;;;;;;;;25.57;57.83;95470.62;609960;232;64955;-66
2022/11/17 05:31:18;;;;;;;;;;;;;;;25.56;58.33;95453.68;610084;232;62882;-66
2022/11/17 05:33:46;;;;;;;;;;;;;;;25.57;57.92;95457.17;610074;232;64742;-66
2022/11/17 05:36:13;;;;;;;;;;;;;;;25.57;60.35;95455.27;610119;232;64695;-66
2022/11/17 05:38:41;;;;;;;;;;;;;;;25.58;59.28;95464.11;610095;232;63009;-66
2022/11/17 05:41:08;;;;;;;;;;;;;;;25.57;60.22;95468.72;610091;232;64682;-66
2022/11/17 05:43:36;;;;;;;;;;;;;;;25.58;58.44;95466.80;609948;232;66911;-66
2022/11/17 05:46:03;;;;;;;;;;;;;;;25.59;59.09;95468.36;609381;232;64918;-66
2022/11/17 05:48:32;;;;;;;;;;;;;;;25.58;59.78;95466.80;610061;232;66948;-66
2022/11/17 05:51:00;;;;;;;;;;;;;;;25.58;59.47;95475.66;610030;232;67119;-66
2022/11/17 05:53:28;;;;;;;;;;;;;;;25.58;59.49;95478.34;610082;232;64991;-66
2022/11/17 05:56:10;;;;;;;;;;;;;;;25.59;58.27;95476.43;610075;232;67483;-66
2022/11/17 05:58:39;;;;;;;;;;;;;;;25.59;60.59;95468.36;610103;232;66870;-66
2022/11/17 06:01:07;;;;;;;;;;;;;;;25.60;59.96;95475.33;610127;232;62741;-66
2022/11/17 06:03:36;;;;;;;;;;;;;;;25.60;59.22;95475.33;610048;232;64981;-67
2022/11/17 06:06:04;;;;;;;;;;;;;;;25.60;60.55;95478.80;610031;232;64932;-66
2022/11/17 06:08:32;;;;;;;;;;;;;;;25.60;60.07;95470.73;610111;232;63035;-66
2022/11/17 06:10:59;;;;;;;;;;;;;;;25.61;60.79;95479.58;610109;232;65072;-66
2022/11/17 06:13:27;;;;;;;;;;;;;;;25.61;61.45;95483.05;610129;232;64945;-65
2022/11/17 06:15:57;;;;;;;;;;;;;;;25.62;60.08;95481.16;610091;232;64872;-65
2022/11/17 06:18:26;;;;;;;;;;;;;;;25.64;59.49;95473.52;610057;232;67104;-65
2022/11/17 06:20:53;;;;;;;;;;;;;;;25.64;60.68;95481.59;609930;232;67060;-69
2022/11/17 06:23:22;;;;;;;;;;;;;;;25.64;60.33;95476.98;609923;232;63871;-69
2022/11/17 06:25:50;;;;;;;;;;;;;;;25.65;60.13;95459.73;610111;232;65084;-69
2022/11/17 06:28:19;;;;;;;;;;;;;;;25.67;61.33;95459.39;608777;232;64838;-70
2022/11/17 06:30:47;;;;;;;;;;;;;;;25.67;61.07;95459.39;610081;232;62919;-69
2022/11/17 06:33:16;;;;;;;;;;;;;;;25.69;59.78;95473.29;605025;232;70076;-70
2022/11/17 06:35:44;;;;;;;;;;;;;;;25.69;60.72;95462.53;599619;232;64052;-70
2022/11/17 06:38:11;;;;;;;;;;;;;;;25.71;59.84;95470.27;610145;232;65132;-69
2022/11/17 06:40:39;;;;;;;;;;;;;;;25.72;59.98;95467.23;610070;232;64929;-69
2022/11/17 06:43:11;;;;;;;;;;;;;;;25.73;59.83;95476.08;610084;232;65210;-69
2022/11/17 06:45:36;;;;;;;;;;;;;;;25.73;60.46;95468.81;609967;232;62923;-69
2022/11/17 06:48:04;;;;;;;;;;;;;;;25.76;60.52;95472.73;610114;232;65127;-69
2022/11/17 06:50:32;;;;;;;;;;;;;;;25.76;60.19;95481.59;610080;232;65035;-69
2022/11/17 06:53:01;;;;;;;;;;;;;;;25.77;59.66;95485.05;610127;232;63018;-66
2022/11/17 06:55:29;;;;;;;;;;;;;;;25.78;60.53;95491.99;610060;232;67275;-66
2022/11/17 06:58:01;;;;;;;;;;;;;;;25.78;59.70;95487.42;610096;230;66915;-65
2022/11/17 07:00:29;;;;;;;;;;;;;;;25.79;60.46;95488.98;609896;232;65016;-66
2022/11/17 07:02:58;;;;;;;;;;;;;;;25.80;59.83;95487.84;610046;232;66985;-66
2022/11/17 07:05:26;;;;;;;;;;;;;;;25.81;60.85;95489.44;610014;232;66993;-68
2022/11/17 07:07:55;;;;;;;;;;;;;;;25.82;60.75;95488.30;610028;232;65228;-66
2022/11/17 07:10:23;;;;;;;;;;;;;;;25.83;59.24;95478.31;609375;232;65339;-71
2022/11/17 07:12:50;;;;;;;;;;;;;;;25.83;58.98;95484.50;610072;232;64855;-66
2022/11/17 07:15:17;;;;;;;;;;;;;;;25.84;59.72;95478.02;610043;232;62928;-67
2022/11/17 07:17:45;;;;;;;;;;;;;;;25.84;60.24;95467.25;614953;230;67301;-66
2022/11/17 07:20:13;;;;;;;;;;;;;;;25.85;60.90;95474.19;614878;230;67135;-67
2022/11/17 07:22:40;;;;;;;;;;;;;;;25.87;61.11;95476.55;615140;230;63041;-67
2022/11/17 07:25:08;;;;;;;;;;;;;;;25.86;58.04;95483.84;615096;230;64849;-67
2022/11/17 07:27:36;;;;;;;;;;;;;;;25.88;59.95;95500.42;615131;230;65038;-66
2022/11/17 07:30:04;;;;;;;;;;;;;;;25.89;60.93;95509.27;615131;229;63000;-67
2022/11/17 07:32:35;;;;;;;;;;;;;;;25.88;60.83;95519.26;614546;230;67151;-67
2022/11/17 07:35:04;;;;;;;;;;;;;;;25.89;59.71;95522.73;613814;231;67097;-67
2022/11/17 07:37:32;;;;;;;;;;;;;;;25.89;59.23;95520.84;613842;231;65045;-66
2022/11/17 07:40:00;;;;;;;;;;;;;;;25.90;59.51;95527.01;613829;231;67750;-67
2022/11/17 07:42:28;;;;;;;;;;;;;;;25.90;59.32;95517.02;613903;231;66853;-67
2022/11/17 07:44:57;;;;;;;;;;;;;;;25.92;59.34;95508.62;613864;231;62675;-67
2022/11/17 07:47:25;;;;;;;;;;;;;;;25.93;60.47;95515.56;613832;231;64956;-66
2022/11/17 07:49:52;;;;;;;;;;;;;;;25.93;60.53;95509.40;613926;231;66808;-68
2022/11/17 07:52:19;;;;;;;;;;;;;;;25.91;59.83;95513.20;613818;231;65051;-70
2022/11/17 07:54:47;;;;;;;;;;;;;;;25.94;54.09;95522.50;613828;231;66994;-67
2022/11/17 07:57:14;;;;;;;;;;;;;;;25.98;56.33;95530.70;613923;231;67268;-67
2022/11/17 07:59:42;;;;;;;;;;;;;;;26.01;56.88;95533.49;613836;231;62928;-66
2022/11/17 08:02:10;;;;;;;;;;;;;;;26.03;57.38;95538.55;613873;231;64972;-64
2022/11/17 08:04:37;;;;;;;;;;;;;;;26.04;55.85;95543.58;613900;231;67101;-64
2022/11/17 08:07:05;;;;;;;;;;;;;;;26.05;55.46;95547.05;613821;231;63036;-64
2022/11/17 08:09:32;;;;;;;;;;;;;;;26.07;56.72;95552.89;613834;231;65002;-64
2022/11/17 08:12:00;;;;;;;;;;;;;;;26.07;55.63;95558.27;613950;231;64947;-64
2022/11/17 08:14:27;;;;;;;;;;;;;;;26.09;55.38;95572.19;613825;231;64754;-64
2022/11/17 08:16:55;;;;;;;;;;;;;;;26.10;55.05;95582.59;613866;231;66894;-67
2022/11/17 08:19:22;;;;;;;;;;;;;;;26.10;55.29;95590.67;613903;231;64868;-67
2022/11/17 08:21:50;;;;;;;;;;;;;;;26.12;55.40;95595.73;613804;231;63028;-68
2022/11/17 08:24:17;;;;;;;;;;;;;;;26.13;56.24;95586.52;613957;231;65137;-66
2022/11/17 08:26:44;;;;;;;;;;;;;;;26.14;56.82;95582.73;613907;231;64945;-67
2022/11/17 08:29:12;;;;;;;;;;;;;;;26.13;56.44;95554.22;613797;231;62820;-67
2022/11/17 08:31:44;;;;;;;;;;;;;;;26.14;56.33;95545.03;613921;230;65079;-65
2022/11/17 08:34:09;;;;;;;;;;;;;;;26.17;59.75;95546.27;615632;230;64898;-66
2022/11/17 08:36:36;;;;;;;;;;;;;;;26.15;57.52;95537.73;615770;230;63648;-67
2022/11/17 08:39:06;;;;;;;;;;;;;;;26.15;58.57;95537.73;615776;230;64601;-67
2022/11/17 08:41:34;;;;;;;;;;;;;;;26.16;56.23;95520.45;615749;230;64738;-67
2022/11/17 08:44:01;;;;;;;;;;;;;;;26.16;58.84;95523.14;615754;230;65099;-67
2022/11/17 08:46:29;;;;;;;;;;;;;;;26.16;58.23;95533.91;615785;230;65436;-64
2022/11/17 08:48:56;;;;;;;;;;;;;;;26.16;58.12;95531.99;615777;230;66769;-65
2022/11/17 08:51:24;;;;;;;;;;;;;;;26.15;57.67;95516.97;615741;230;64989;-65
2022/11/17 08:53:51;;;;;;;;;;;;;;;26.16;58.37;95507.77;615782;230;64600;-65
2022/11/17 08:56:19;;;;;;;;;;;;;;;26.14;56.34;95507.34;615731;230;66826;-65
2022/11/17 08:58:46;;;;;;;;;;;;;;;26.17;57.10;95509.34;615795;230;65012;-64
2022/11/17 09:01:15;;;;;;;;;;;;;;;26.17;57.67;95490.50;615817;230;64662;-64
2022/11/17 09:03:44;;;;;;;;;;;;;;;26.19;57.51;95507.11;615753;230;66912;-64
2022/11/17 09:06:12;;;;;;;;;;;;;;;26.17;56.88;95527.41;615760;230;65006;-64
2022/11/17 09:08:39;;;;;;;;;;;;;;;26.15;55.77;95541.20;615726;230;67175;-68
2022/11/17 09:11:08;;;;;;;;;;;;;;;26.16;54.53;95544.67;615598;230;67314;-65
2022/11/17 09:13:37;;;;;;;;;;;;;;;26.17;54.57;95555.13;615775;230;62922;-68
2022/11/17 09:16:06;;;;;;;;;;;;;;;26.17;53.16;95563.20;615793;230;67231;-66
2022/11/17 09:18:35;;;;;;;;;;;;;;;26.17;54.91;95562.42;615710;230;67117;-66
2022/11/17 09:21:04;;;;;;;;;;;;;;;26.17;54.57;95565.89;615721;230;62901;-67
2022/11/17 09:23:31;;;;;;;;;;;;;;;26.19;53.35;95558.27;615759;230;65289;-66
2022/11/17 09:26:00;;;;;;;;;;;;;;;26.19;56.47;95550.19;615730;230;65017;-66
2022/11/17 09:28:27;;;;;;;;;;;;;;;26.19;54.70;95547.49;615741;230;62803;-66
2022/11/17 09:30:55;;;;;;;;;;;;;;;26.17;54.13;95557.81;615708;230;65453;-67
2022/11/17 09:33:22;;;;;;;;;;;;;;;26.17;53.91;95555.13;614281;230;67093;-73
2022/11/17 09:35:50;;;;;;;;;;;;;;;26.19;54.37;95555.58;613812;231;65091;-66
2022/11/17 09:38:17;;;;;;;;;;;;;;;26.19;53.45;95544.80;613807;231;67484;-67
2022/11/17 09:40:45;;;;;;;;;;;;;;;26.19;53.94;95550.19;609405;231;66985;-66
2022/11/17 09:43:14;;;;;;;;;;;;;;;26.21;55.79;95539.06;607203;233;65130;-66
2022/11/17 09:45:43;;;;;;;;;;;;;;;26.20;54.40;95540.97;606949;233;67403;-70
2022/11/17 09:48:17;;;;;;;;;;;;;;;26.20;54.04;95546.36;607168;233;64894;-71
2022/11/17 09:50:46;;;;;;;;;;;;;;;26.20;53.95;95546.36;607132;233;65026;-72
2022/11/17 09:53:15;;;;;;;;;;;;;;;26.21;54.71;95541.75;607124;233;68406;-74
2022/11/17 09:55:44;;;;;;;;;;;;;;;26.20;54.16;95550.97;607256;233;64971;-71
2022/11/17 09:58:19;;;;;;;;;;;;;;;26.21;54.88;95547.14;607196;233;62911;-70
2022/11/17 10:00:51;;;;;;;;;;;;;;;26.22;56.27;95541.42;607118;233;67165;-71
2022/11/17 10:03:21;;;;;;;;;;;;;;;26.20;55.34;95546.36;607218;233;67111;-70
2022/11/17 10:05:49;;;;;;;;;;;;;;;26.22;56.83;95546.81;606915;233;63715;-69
2022/11/17 10:08:18;;;;;;;;;;;;;;;26.23;56.89;95561.83;607141;233;67212;-69
2022/11/17 10:10:47;;;;;;;;;;;;;;;26.22;55.56;95554.89;607176;233;67053;-69
2022/11/17 10:13:20;;;;;;;;;;;;;;;26.22;55.19;95549.50;607113;233;65120;-69
2022/11/17 10:15:48;;;;;;;;;;;;;;;26.24;55.87;95547.23;605898;233;67259;-69
2022/11/17 10:18:16;;;;;;;;;;;;;;;26.23;55.40;95542.20;607185;233;66799;-69
2022/11/17 10:20:44;;;;;;;;;;;;;;;26.22;53.67;95549.50;607156;233;65062;-68
2022/11/17 10:23:14;;;;;;;;;;;;;;;26.23;54.94;95544.90;607163;233;65166;-69
2022/11/17 10:25:45;;;;;;;;;;;;;;;26.20;52.05;95549.05;607057;233;65258;-76
2022/11/17 10:28:32;;;;;;;;;;;;;;;26.21;55.75;95556.00;607180;233;62935;-68
2022/11/17 10:31:01;;;;;;;;;;;;;;;26.21;52.89;95547.14;607121;232;67211;-67
2022/11/17 10:33:36;;;;;;;;;;;;;;;26.21;55.79;95542.53;606714;232;66978;-68
2022/11/17 10:36:06;;;;;;;;;;;;;;;26.19;55.34;95542.11;606583;234;64993;-69
2022/11/17 10:38:34;;;;;;;;;;;;;;;26.18;54.61;95534.36;606287;233;67194;-68
2022/11/17 10:41:02;;;;;;;;;;;;;;;26.17;54.60;95538.97;606675;234;67016;-68
2022/11/17 10:43:36;;;;;;;;;;;;;;;26.17;52.93;95530.11;606627;234;65122;-69
2022/11/17 10:46:05;;;;;;;;;;;;;;;26.17;55.05;95528.20;606619;234;67022;-69
2022/11/17 10:48:34;;;;;;;;;;;;;;;26.17;54.82;95530.11;606617;234;67100;-68
2022/11/17 10:51:11;;;;;;;;;;;;;;;26.16;53.57;95534.69;606457;234;65132;-68
2022/11/17 10:53:37;;;;;;;;;;;;;;;26.16;53.84;95529.30;606028;233;67315;-69
2022/11/17 10:56:16;;;;;;;;;;;;;;;26.15;53.63;95535.82;606667;234;67110;-69
2022/11/17 10:58:57;;;;;;;;;;;;;;;26.16;55.12;95533.91;606554;234;64913;-68
2022/11/17 11:01:35;;;;;;;;;;;;;;;26.15;53.57;95530.44;606641;234;67217;-69
2022/11/17 11:04:05;;;;;;;;;;;;;;;26.13;53.67;95525.38;606653;234;64878;-69
2022/11/17 11:06:35;;;;;;;;;;;;;;;26.16;54.70;95533.91;606681;234;47760;-68
2022/11/17 11:09:04;;;;;;;;;;;;;;;26.13;55.08;95524.59;602312;234;64876;-68
2022/11/17 11:11:33;;;;;;;;;;;;;;;26.11;52.36;95533.03;606637;234;64936;-68
2022/11/17 11:14:02;;;;;;;;;;;;;;;26.12;54.13;95528.42;606457;233;65054;-68
2022/11/17 11:16:29;;;;;;;;;;;;;;;26.11;53.12;95532.25;606523;234;67347;-71
2022/11/17 11:18:57;;;;;;;;;;;;;;;26.10;52.53;95531.45;606617;234;66934;-70
2022/11/17 11:21:32;;;;;;;;;;;;;;;26.12;55.26;95525.73;606653;234;62915;-71
2022/11/17 11:24:02;;;;;;;;;;;;;;;26.11;55.11;95527.65;606510;233;67186;-70
2022/11/17 11:26:43;;;;;;;;;;;;;;;26.10;56.23;95523.37;606288;233;67274;-68
2022/11/17 11:29:15;;;;;;;;;;;;;;;26.09;54.09;95524.50;606652;234;65050;-69
2022/11/17 11:31:59;;;;;;;;;;;;;;;26.11;53.76;95526.87;606456;233;64981;-69
2022/11/17 11:34:43;;;;;;;;;;;;;;;26.10;54.43;95528.75;606996;233;66633;-70
2022/11/17 11:37:14;;;;;;;;;;;;;;;26.12;54.41;95536.50;593174;239;63161;-71
2022/11/17 11:39:44;;;;;;;;;;;;;;;26.10;52.82;95520.68;602929;233;67092;-66
2022/11/17 11:42:25;;;;;;;;;;;;;;;26.12;53.33;95515.74;607236;233;67414;-68
2022/11/17 11:44:57;;;;;;;;;;;;;;;26.12;54.85;95525.73;607245;233;63037;-69
2022/11/17 11:47:33;;;;;;;;;;;;;;;26.11;53.38;95522.27;605799;233;65002;-68
2022/11/17 11:50:16;;;;;;;;;;;;;;;26.13;53.44;95519.99;607154;233;64952;-68
2022/11/17 11:52:45;;;;;;;;;;;;;;;26.17;52.81;95519.34;607244;233;65150;-69
2022/11/17 11:55:20;;;;;;;;;;;;;;;26.17;52.72;95520.12;607152;233;64931;-68
2022/11/17 11:57:52;;;;;;;;;;;;;;;26.19;54.03;95517.88;607211;233;64765;-68
2022/11/17 12:00:20;;;;;;;;;;;;;;;26.20;53.49;95515.96;603645;233;63146;-68
2022/11/17 12:02:55;;;;;;;;;;;;;;;26.20;51.74;95516.73;607176;233;66968;-68
2022/11/17 12:05:25;;;;;;;;;;;;;;;26.22;52.98;95516.38;606429;233;67126;-69
2022/11/17 12:07:54;;;;;;;;;;;;;;;26.22;52.21;95519.88;607078;233;63001;-68
2022/11/17 12:10:38;;;;;;;;;;;;;;;26.23;52.18;95513.36;607170;233;67460;-68
2022/11/17 12:13:06;;;;;;;;;;;;;;;26.26;52.35;95518.06;606791;233;66996;-68
2022/11/17 12:15:35;;;;;;;;;;;;;;;26.27;53.78;95519.66;607170;233;64998;-68
2022/11/17 12:18:04;;;;;;;;;;;;;;;26.25;53.52;95507.65;607181;233;67233;-68
2022/11/17 12:20:34;;;;;;;;;;;;;;;26.27;54.37;95513.45;607205;233;64918;-66
2022/11/17 12:23:19;;;;;;;;;;;;;;;26.27;53.72;95519.66;607068;233;65036;-69
2022/11/17 12:25:48;;;;;;;;;;;;;;;26.28;53.71;95531.98;607272;233;67246;-68
2022/11/17 12:28:29;;;;;;;;;;;;;;;26.28;53.17;95526.59;607157;233;64765;-66
2022/11/17 12:30:58;;;;;;;;;;;;;;;26.28;53.63;95526.59;607132;233;63054;-66
2022/11/17 12:33:27;;;;;;;;;;;;;;;26.28;53.90;95531.98;607079;233;66993;-65
2022/11/17 12:36:05;;;;;;;;;;;;;;;26.30;54.10;95523.55;598290;233;67111;-65
2022/11/17 12:38:35;;;;;;;;;;;;;;;26.28;55.34;95521.20;602380;233;63020;-64
2022/11/17 12:41:02;;;;;;;;;;;;;;;26.29;55.11;95532.76;607174;233;65016;-64
2022/11/17 12:43:30;;;;;;;;;;;;;;;26.27;54.60;95535.80;607188;233;65046;-66
2022/11/17 12:46:15;;;;;;;;;;;;;;;26.27;55.12;95541.19;607135;233;65287;-65
2022/11/17 12:48:56;;;;;;;;;;;;;;;26.28;55.33;95534.67;607206;233;65052;-66
2022/11/17 12:51:28;;;;;;;;;;;;;;;26.28;53.30;95539.28;606730;233;67230;-65
2022/11/17 12:54:03;;;;;;;;;;;;;;;26.26;53.18;95544.99;606971;233;62714;-65
2022/11/17 12:56:32;;;;;;;;;;;;;;;26.26;52.92;95544.99;607200;233;66884;-66
2022/11/17 12:59:01;;;;;;;;;;;;;;;26.27;52.39;95543.08;607106;233;64856;-67
2022/11/17 13:01:39;;;;;;;;;;;;;;;26.26;53.51;95550.37;607103;233;62903;-66
2022/11/17 13:04:10;;;;;;;;;;;;;;;26.27;55.76;95546.58;607074;233;64645;-66
2022/11/17 13:06:38;;;;;;;;;;;;;;;26.26;54.85;95544.21;607180;233;66881;-67
2022/11/17 13:09:07;;;;;;;;;;;;;;;26.24;51.77;95541.06;607173;233;65047;-66
2022/11/17 13:11:35;;;;;;;;;;;;;;;26.23;54.47;95548.37;607276;233;66932;-67
2022/11/17 13:14:06;;;;;;;;;;;;;;;26.26;54.69;95549.59;607200;233;67111;-66
2022/11/17 13:16:36;;;;;;;;;;;;;;;26.24;54.55;95552.62;607192;233;65065;-64
2022/11/17 13:19:03;;;;;;;;;;;;;;;26.25;55.14;95562.28;607159;233;64705;-65
2022/11/17 13:21:32;;;;;;;;;;;;;;;26.24;52.59;95558.00;607158;233;64984;-66
2022/11/17 13:23:59;;;;;;;;;;;;;;;26.24;51.52;95559.92;607188;233;65051;-66
2022/11/17 13:26:30;;;;;;;;;;;;;;;26.24;54.29;95562.61;607192;233;67434;-65
2022/11/17 13:29:07;;;;;;;;;;;;;;;26.24;55.64;95568.00;607159;233;67040;-66